sensor_id;sensor_type;location;lat;lon;timestamp;temperature;humidity
38500;DHT22;24269;51.894;4.622;2022-12-20T00:02:05;10.60;99.90
38500;DHT22;24269;51.894;4.622;2022-12-20T00:04:31;10.60;99.90
38500;DHT22;24269;51.894;4.622;2022-12-20T00:06:56;10.60;99.90
38500;DHT22;24269;51.894;4.622;2022-12-20T00:09:22;10.60;99.90
38500;DHT22;24269;51.894;4.622;2022-12-20T00:11:50;10.60;99.90
38500;DHT22;24269;51.894;4.622;2022-12-20T00:14:16;10.70;99.90
38500;DHT22;24269;51.894;4.622;2022-12-20T00:16:41;10.70;99.90
38500;DHT22;24269;51.894;4.622;2022-12-20T00:19:09;10.70;99.90
38500;DHT22;24269;51.894;4.622;2022-12-20T00:21:35;10.70;99.90
38500;DHT22;24269;51.894;4.622;2022-12-20T00:24:03;10.70;99.90
38500;DHT22;24269;51.894;4.622;2022-12-20T00:26:31;10.70;99.90
38500;DHT22;24269;51.894;4.622;2022-12-20T00:28:58;10.70;99.90
38500;DHT22;24269;51.894;4.622;2022-12-20T00:31:25;10.80;99.90
38500;DHT22;24269;51.894;4.622;2022-12-20T00:33:53;10.80;99.90
38500;DHT22;24269;51.894;4.622;2022-12-20T00:36:20;10.90;99.90
38500;DHT22;24269;51.894;4.622;2022-12-20T00:38:50;10.90;99.90
38500;DHT22;24269;51.894;4.622;2022-12-20T00:41:19;10.90;99.90
38500;DHT22;24269;51.894;4.622;2022-12-20T00:43:45;10.80;99.90
38500;DHT22;24269;51.894;4.622;2022-12-20T00:46:13;10.80;99.90
38500;DHT22;24269;51.894;4.622;2022-12-20T00:48:39;10.70;99.90
38500;DHT22;24269;51.894;4.622;2022-12-20T00:51:08;10.70;99.90
38500;DHT22;24269;51.894;4.622;2022-12-20T00:53:35;10.70;99.90
38500;DHT22;24269;51.894;4.622;2022-12-20T00:56:01;10.50;99.90
38500;DHT22;24269;51.894;4.622;2022-12-20T00:58:27;10.50;99.90
38500;DHT22;24269;51.894;4.622;2022-12-20T01:00:53;10.40;99.90
38500;DHT22;24269;51.894;4.622;2022-12-20T01:03:19;10.30;99.90
38500;DHT22;24269;51.894;4.622;2022-12-20T01:05:50;10.20;99.90
38500;DHT22;24269;51.894;4.622;2022-12-20T01:08:17;10.20;99.90
38500;DHT22;24269;51.894;4.622;2022-12-20T01:10:43;10.20;99.90
38500;DHT22;24269;51.894;4.622;2022-12-20T01:13:09;10.10;99.90
38500;DHT22;24269;51.894;4.622;2022-12-20T01:15:35;10.20;99.90
38500;DHT22;24269;51.894;4.622;2022-12-20T01:18:00;10.20;99.90
38500;DHT22;24269;51.894;4.622;2022-12-20T01:20:26;10.20;99.90
38500;DHT22;24269;51.894;4.622;2022-12-20T01:22:52;10.20;99.90
38500;DHT22;24269;51.894;4.622;2022-12-20T01:25:17;10.20;99.90
38500;DHT22;24269;51.894;4.622;2022-12-20T01:27:43;10.20;99.90
38500;DHT22;24269;51.894;4.622;2022-12-20T01:30:09;10.20;99.90
38500;DHT22;24269;51.894;4.622;2022-12-20T01:32:35;10.20;99.90
38500;DHT22;24269;51.894;4.622;2022-12-20T01:35:01;10.20;99.90
38500;DHT22;24269;51.894;4.622;2022-12-20T01:37:26;10.20;99.90
38500;DHT22;24269;51.894;4.622;2022-12-20T01:39:52;10.20;99.90
38500;DHT22;24269;51.894;4.622;2022-12-20T01:42:17;10.20;99.90
38500;DHT22;24269;51.894;4.622;2022-12-20T01:47:10;10.30;99.90
38500;DHT22;24269;51.894;4.622;2022-12-20T01:49:43;10.20;99.90
38500;DHT22;24269;51.894;4.622;2022-12-20T01:52:40;10.20;99.90
38500;DHT22;24269;51.894;4.622;2022-12-20T01:55:22;10.20;99.90
38500;DHT22;24269;51.894;4.622;2022-12-20T01:57:51;10.30;99.90
38500;DHT22;24269;51.894;4.622;2022-12-20T02:00:19;10.20;99.90
38500;DHT22;24269;51.894;4.622;2022-12-20T02:02:47;10.20;99.90
38500;DHT22;24269;51.894;4.622;2022-12-20T02:05:13;10.20;99.90
38500;DHT22;24269;51.894;4.622;2022-12-20T02:07:40;10.20;99.90
38500;DHT22;24269;51.894;4.622;2022-12-20T02:10:08;10.30;99.90
38500;DHT22;24269;51.894;4.622;2022-12-20T02:12:43;10.30;99.90
38500;DHT22;24269;51.894;4.622;2022-12-20T02:15:32;10.30;99.90
38500;DHT22;24269;51.894;4.622;2022-12-20T02:29:39;10.30;99.90
38500;DHT22;24269;51.894;4.622;2022-12-20T02:32:18;10.30;99.90
38500;DHT22;24269;51.894;4.622;2022-12-20T02:34:44;10.30;99.90
38500;DHT22;24269;51.894;4.622;2022-12-20T02:37:10;10.30;99.90
38500;DHT22;24269;51.894;4.622;2022-12-20T02:39:39;10.30;99.90
38500;DHT22;24269;51.894;4.622;2022-12-20T02:42:17;10.30;99.90
38500;DHT22;24269;51.894;4.622;2022-12-20T02:44:58;10.30;99.90
38500;DHT22;24269;51.894;4.622;2022-12-20T02:47:51;10.30;99.90
38500;DHT22;24269;51.894;4.622;2022-12-20T02:50:31;10.30;99.90
38500;DHT22;24269;51.894;4.622;2022-12-20T02:52:59;10.30;99.90
38500;DHT22;24269;51.894;4.622;2022-12-20T02:56:27;10.30;99.90
38500;DHT22;24269;51.894;4.622;2022-12-20T02:58:33;10.40;99.90
38500;DHT22;24269;51.894;4.622;2022-12-20T03:01:05;10.30;99.90
38500;DHT22;24269;51.894;4.622;2022-12-20T03:03:32;10.30;99.90
38500;DHT22;24269;51.894;4.622;2022-12-20T03:05:59;10.30;99.90
38500;DHT22;24269;51.894;4.622;2022-12-20T03:08:25;10.30;99.90
38500;DHT22;24269;51.894;4.622;2022-12-20T03:10:52;10.30;99.90
38500;DHT22;24269;51.894;4.622;2022-12-20T03:13:19;10.30;99.90
38500;DHT22;24269;51.894;4.622;2022-12-20T03:15:44;10.40;99.90
38500;DHT22;24269;51.894;4.622;2022-12-20T03:18:10;10.40;99.90
38500;DHT22;24269;51.894;4.622;2022-12-20T03:20:36;10.40;99.90
38500;DHT22;24269;51.894;4.622;2022-12-20T03:23:02;10.50;99.90
38500;DHT22;24269;51.894;4.622;2022-12-20T03:25:28;10.50;99.90
38500;DHT22;24269;51.894;4.622;2022-12-20T03:27:54;10.50;99.90
38500;DHT22;24269;51.894;4.622;2022-12-20T03:30:19;10.50;99.90
38500;DHT22;24269;51.894;4.622;2022-12-20T03:32:45;10.60;99.90
38500;DHT22;24269;51.894;4.622;2022-12-20T03:35:11;10.60;99.90
38500;DHT22;24269;51.894;4.622;2022-12-20T03:37:36;10.60;99.90
38500;DHT22;24269;51.894;4.622;2022-12-20T03:40:02;10.60;99.90
38500;DHT22;24269;51.894;4.622;2022-12-20T03:42:28;10.60;99.90
38500;DHT22;24269;51.894;4.622;2022-12-20T03:44:53;10.60;99.90
38500;DHT22;24269;51.894;4.622;2022-12-20T03:47:19;10.70;99.90
38500;DHT22;24269;51.894;4.622;2022-12-20T03:49:44;10.70;99.90
38500;DHT22;24269;51.894;4.622;2022-12-20T03:52:13;10.80;99.90
38500;DHT22;24269;51.894;4.622;2022-12-20T03:54:40;10.90;99.90
38500;DHT22;24269;51.894;4.622;2022-12-20T03:57:06;10.90;99.90
38500;DHT22;24269;51.894;4.622;2022-12-20T03:59:31;11.00;99.90
38500;DHT22;24269;51.894;4.622;2022-12-20T04:01:57;11.10;99.90
38500;DHT22;24269;51.894;4.622;2022-12-20T04:04:22;11.20;99.90
38500;DHT22;24269;51.894;4.622;2022-12-20T04:06:48;11.20;99.90
38500;DHT22;24269;51.894;4.622;2022-12-20T04:09:14;11.20;99.90
38500;DHT22;24269;51.894;4.622;2022-12-20T04:11:40;11.20;99.90
38500;DHT22;24269;51.894;4.622;2022-12-20T04:14:06;11.10;99.90
38500;DHT22;24269;51.894;4.622;2022-12-20T04:16:32;11.10;99.90
38500;DHT22;24269;51.894;4.622;2022-12-20T04:18:58;11.20;99.90
38500;DHT22;24269;51.894;4.622;2022-12-20T04:21:29;11.10;99.90
38500;DHT22;24269;51.894;4.622;2022-12-20T04:23:56;11.10;99.90
38500;DHT22;24269;51.894;4.622;2022-12-20T04:26:23;11.10;99.90
38500;DHT22;24269;51.894;4.622;2022-12-20T04:28:48;11.00;99.90
38500;DHT22;24269;51.894;4.622;2022-12-20T04:31:14;11.00;99.90
38500;DHT22;24269;51.894;4.622;2022-12-20T04:33:40;11.00;99.90
38500;DHT22;24269;51.894;4.622;2022-12-20T04:36:06;11.00;99.90
38500;DHT22;24269;51.894;4.622;2022-12-20T04:38:32;11.00;99.90
38500;DHT22;24269;51.894;4.622;2022-12-20T04:40:57;11.00;99.90
38500;DHT22;24269;51.894;4.622;2022-12-20T04:43:23;11.00;99.90
38500;DHT22;24269;51.894;4.622;2022-12-20T04:45:52;10.90;99.90
38500;DHT22;24269;51.894;4.622;2022-12-20T04:48:18;10.90;99.90
38500;DHT22;24269;51.894;4.622;2022-12-20T04:50:49;10.90;99.90
38500;DHT22;24269;51.894;4.622;2022-12-20T04:53:15;10.80;99.90
38500;DHT22;24269;51.894;4.622;2022-12-20T04:55:59;10.80;99.90
38500;DHT22;24269;51.894;4.622;2022-12-20T04:58:25;10.80;99.90
38500;DHT22;24269;51.894;4.622;2022-12-20T05:00:50;10.80;99.90
38500;DHT22;24269;51.894;4.622;2022-12-20T05:03:18;10.80;99.90
38500;DHT22;24269;51.894;4.622;2022-12-20T05:05:43;10.80;99.90
38500;DHT22;24269;51.894;4.622;2022-12-20T05:08:09;10.80;99.90
38500;DHT22;24269;51.894;4.622;2022-12-20T05:10:34;10.80;99.90
38500;DHT22;24269;51.894;4.622;2022-12-20T05:13:00;10.80;99.90
38500;DHT22;24269;51.894;4.622;2022-12-20T05:15:25;10.90;99.90
38500;DHT22;24269;51.894;4.622;2022-12-20T05:17:51;10.90;99.90
38500;DHT22;24269;51.894;4.622;2022-12-20T05:20:17;10.90;99.90
38500;DHT22;24269;51.894;4.622;2022-12-20T05:22:42;10.90;99.90
38500;DHT22;24269;51.894;4.622;2022-12-20T05:25:26;10.90;99.90
38500;DHT22;24269;51.894;4.622;2022-12-20T05:28:11;10.90;99.90
38500;DHT22;24269;51.894;4.622;2022-12-20T05:30:36;10.90;99.90
38500;DHT22;24269;51.894;4.622;2022-12-20T05:33:03;10.90;99.90
38500;DHT22;24269;51.894;4.622;2022-12-20T05:35:28;10.90;99.90
38500;DHT22;24269;51.894;4.622;2022-12-20T05:37:54;10.90;99.90
38500;DHT22;24269;51.894;4.622;2022-12-20T05:40:19;11.00;99.90
38500;DHT22;24269;51.894;4.622;2022-12-20T05:42:45;11.00;99.90
38500;DHT22;24269;51.894;4.622;2022-12-20T05:45:10;11.10;99.90
38500;DHT22;24269;51.894;4.622;2022-12-20T05:47:36;11.00;99.90
38500;DHT22;24269;51.894;4.622;2022-12-20T05:50:04;11.00;99.90
38500;DHT22;24269;51.894;4.622;2022-12-20T05:52:29;11.00;99.90
38500;DHT22;24269;51.894;4.622;2022-12-20T05:54:55;11.00;99.90
38500;DHT22;24269;51.894;4.622;2022-12-20T05:57:21;11.10;99.90
38500;DHT22;24269;51.894;4.622;2022-12-20T05:59:46;11.00;99.90
38500;DHT22;24269;51.894;4.622;2022-12-20T06:02:12;11.10;99.90
38500;DHT22;24269;51.894;4.622;2022-12-20T06:04:38;11.10;99.90
38500;DHT22;24269;51.894;4.622;2022-12-20T06:07:04;11.10;99.90
38500;DHT22;24269;51.894;4.622;2022-12-20T06:09:31;11.10;99.90
38500;DHT22;24269;51.894;4.622;2022-12-20T06:11:57;11.10;99.90
38500;DHT22;24269;51.894;4.622;2022-12-20T06:14:23;11.20;99.90
38500;DHT22;24269;51.894;4.622;2022-12-20T06:16:49;11.20;99.90
38500;DHT22;24269;51.894;4.622;2022-12-20T06:19:15;11.20;99.90
38500;DHT22;24269;51.894;4.622;2022-12-20T06:21:40;11.20;99.90
38500;DHT22;24269;51.894;4.622;2022-12-20T06:24:06;11.20;99.90
38500;DHT22;24269;51.894;4.622;2022-12-20T06:26:32;11.20;99.90
38500;DHT22;24269;51.894;4.622;2022-12-20T06:29:03;11.20;99.90
38500;DHT22;24269;51.894;4.622;2022-12-20T06:31:32;11.20;99.90
38500;DHT22;24269;51.894;4.622;2022-12-20T06:33:57;11.30;99.90
38500;DHT22;24269;51.894;4.622;2022-12-20T06:36:23;11.30;99.90
38500;DHT22;24269;51.894;4.622;2022-12-20T06:38:48;11.30;99.90
38500;DHT22;24269;51.894;4.622;2022-12-20T06:41:14;11.40;99.90
38500;DHT22;24269;51.894;4.622;2022-12-20T06:43:40;11.40;99.90
38500;DHT22;24269;51.894;4.622;2022-12-20T06:46:05;11.40;99.90
38500;DHT22;24269;51.894;4.622;2022-12-20T06:48:31;11.40;99.90
38500;DHT22;24269;51.894;4.622;2022-12-20T06:50:57;11.40;99.90
38500;DHT22;24269;51.894;4.622;2022-12-20T06:53:22;11.40;99.90
38500;DHT22;24269;51.894;4.622;2022-12-20T06:55:50;11.30;99.90
38500;DHT22;24269;51.894;4.622;2022-12-20T06:58:18;11.30;99.90
38500;DHT22;24269;51.894;4.622;2022-12-20T07:00:45;11.40;99.90
38500;DHT22;24269;51.894;4.622;2022-12-20T07:03:10;11.30;99.90
38500;DHT22;24269;51.894;4.622;2022-12-20T07:05:36;11.30;99.90
38500;DHT22;24269;51.894;4.622;2022-12-20T07:08:02;11.30;99.90
38500;DHT22;24269;51.894;4.622;2022-12-20T07:10:29;11.30;99.90
38500;DHT22;24269;51.894;4.622;2022-12-20T07:12:55;11.30;99.90
38500;DHT22;24269;51.894;4.622;2022-12-20T07:15:21;11.40;99.90
38500;DHT22;24269;51.894;4.622;2022-12-20T07:17:47;11.50;99.90
38500;DHT22;24269;51.894;4.622;2022-12-20T07:20:12;11.50;99.90
38500;DHT22;24269;51.894;4.622;2022-12-20T07:22:38;11.50;99.90
38500;DHT22;24269;51.894;4.622;2022-12-20T07:25:04;11.40;99.90
38500;DHT22;24269;51.894;4.622;2022-12-20T07:27:29;11.40;99.90
38500;DHT22;24269;51.894;4.622;2022-12-20T07:29:55;11.30;99.90
38500;DHT22;24269;51.894;4.622;2022-12-20T07:32:21;11.30;99.90
38500;DHT22;24269;51.894;4.622;2022-12-20T07:34:46;11.30;99.90
38500;DHT22;24269;51.894;4.622;2022-12-20T07:37:12;11.20;99.90
38500;DHT22;24269;51.894;4.622;2022-12-20T07:39:38;11.20;99.90
38500;DHT22;24269;51.894;4.622;2022-12-20T07:42:04;11.20;99.90
38500;DHT22;24269;51.894;4.622;2022-12-20T07:44:29;11.10;99.90
38500;DHT22;24269;51.894;4.622;2022-12-20T07:46:55;11.10;99.90
38500;DHT22;24269;51.894;4.622;2022-12-20T07:49:20;11.00;99.90
38500;DHT22;24269;51.894;4.622;2022-12-20T07:51:50;10.90;99.90
38500;DHT22;24269;51.894;4.622;2022-12-20T07:54:24;10.90;99.90
38500;DHT22;24269;51.894;4.622;2022-12-20T07:56:53;10.90;99.90
38500;DHT22;24269;51.894;4.622;2022-12-20T07:59:32;10.90;99.90
38500;DHT22;24269;51.894;4.622;2022-12-20T08:02:00;10.90;99.90
38500;DHT22;24269;51.894;4.622;2022-12-20T08:04:26;10.80;99.90
38500;DHT22;24269;51.894;4.622;2022-12-20T08:06:54;10.80;99.90
38500;DHT22;24269;51.894;4.622;2022-12-20T08:09:23;10.80;99.90
38500;DHT22;24269;51.894;4.622;2022-12-20T08:11:50;10.80;99.90
38500;DHT22;24269;51.894;4.622;2022-12-20T08:14:17;10.90;99.90
38500;DHT22;24269;51.894;4.622;2022-12-20T08:16:43;11.00;99.90
38500;DHT22;24269;51.894;4.622;2022-12-20T08:19:09;11.00;99.90
38500;DHT22;24269;51.894;4.622;2022-12-20T08:21:35;11.00;99.90
38500;DHT22;24269;51.894;4.622;2022-12-20T08:24:01;11.00;99.90
38500;DHT22;24269;51.894;4.622;2022-12-20T08:26:26;11.10;99.90
38500;DHT22;24269;51.894;4.622;2022-12-20T08:28:53;11.00;99.90
38500;DHT22;24269;51.894;4.622;2022-12-20T08:31:19;11.00;99.90
38500;DHT22;24269;51.894;4.622;2022-12-20T08:33:45;11.00;99.90
38500;DHT22;24269;51.894;4.622;2022-12-20T08:36:12;10.90;99.90
38500;DHT22;24269;51.894;4.622;2022-12-20T08:38:39;10.90;99.90
38500;DHT22;24269;51.894;4.622;2022-12-20T08:41:11;10.90;99.90
38500;DHT22;24269;51.894;4.622;2022-12-20T08:43:38;10.90;99.90
38500;DHT22;24269;51.894;4.622;2022-12-20T08:46:04;10.90;99.90
38500;DHT22;24269;51.894;4.622;2022-12-20T08:48:31;10.80;99.90
38500;DHT22;24269;51.894;4.622;2022-12-20T08:50:59;10.80;99.90
38500;DHT22;24269;51.894;4.622;2022-12-20T08:53:25;10.80;99.90
38500;DHT22;24269;51.894;4.622;2022-12-20T08:55:52;10.80;99.90
38500;DHT22;24269;51.894;4.622;2022-12-20T08:58:18;10.80;99.90
38500;DHT22;24269;51.894;4.622;2022-12-20T09:00:44;10.80;99.90
38500;DHT22;24269;51.894;4.622;2022-12-20T09:03:10;10.80;99.90
38500;DHT22;24269;51.894;4.622;2022-12-20T09:05:45;10.80;99.90
38500;DHT22;24269;51.894;4.622;2022-12-20T09:08:12;10.80;99.90
38500;DHT22;24269;51.894;4.622;2022-12-20T09:10:38;10.80;99.90
38500;DHT22;24269;51.894;4.622;2022-12-20T09:13:03;10.70;99.90
38500;DHT22;24269;51.894;4.622;2022-12-20T09:15:29;10.70;99.90
38500;DHT22;24269;51.894;4.622;2022-12-20T09:17:56;10.70;99.90
38500;DHT22;24269;51.894;4.622;2022-12-20T09:20:22;10.70;99.90
38500;DHT22;24269;51.894;4.622;2022-12-20T09:22:48;10.70;99.90
38500;DHT22;24269;51.894;4.622;2022-12-20T09:25:13;10.70;99.90
38500;DHT22;24269;51.894;4.622;2022-12-20T09:27:39;10.70;99.90
38500;DHT22;24269;51.894;4.622;2022-12-20T09:30:05;10.70;99.90
38500;DHT22;24269;51.894;4.622;2022-12-20T09:32:31;10.60;99.90
38500;DHT22;24269;51.894;4.622;2022-12-20T09:34:56;10.70;99.90
38500;DHT22;24269;51.894;4.622;2022-12-20T09:37:22;10.70;99.90
38500;DHT22;24269;51.894;4.622;2022-12-20T09:39:48;10.70;99.90
38500;DHT22;24269;51.894;4.622;2022-12-20T09:42:17;10.70;99.90
38500;DHT22;24269;51.894;4.622;2022-12-20T09:44:47;10.70;99.90
38500;DHT22;24269;51.894;4.622;2022-12-20T09:47:16;10.70;99.90
38500;DHT22;24269;51.894;4.622;2022-12-20T09:49:44;10.70;99.90
38500;DHT22;24269;51.894;4.622;2022-12-20T09:52:39;10.70;99.90
38500;DHT22;24269;51.894;4.622;2022-12-20T09:55:15;10.70;99.90
38500;DHT22;24269;51.894;4.622;2022-12-20T10:00:28;10.70;99.90
38500;DHT22;24269;51.894;4.622;2022-12-20T10:02:55;10.80;99.90
38500;DHT22;24269;51.894;4.622;2022-12-20T10:05:34;10.70;99.90
38500;DHT22;24269;51.894;4.622;2022-12-20T10:08:19;10.80;99.90
38500;DHT22;24269;51.894;4.622;2022-12-20T10:10:56;10.80;99.90
38500;DHT22;24269;51.894;4.622;2022-12-20T10:16:28;10.80;99.90
38500;DHT22;24269;51.894;4.622;2022-12-20T10:19:02;10.80;99.90
38500;DHT22;24269;51.894;4.622;2022-12-20T10:24:29;10.80;99.90
38500;DHT22;24269;51.894;4.622;2022-12-20T10:26:57;10.80;99.90
38500;DHT22;24269;51.894;4.622;2022-12-20T10:29:27;10.80;99.90
38500;DHT22;24269;51.894;4.622;2022-12-20T10:31:58;10.80;99.90
38500;DHT22;24269;51.894;4.622;2022-12-20T10:34:24;10.80;99.90
38500;DHT22;24269;51.894;4.622;2022-12-20T10:37:12;10.80;99.90
38500;DHT22;24269;51.894;4.622;2022-12-20T10:39:46;10.80;99.90
38500;DHT22;24269;51.894;4.622;2022-12-20T10:42:37;10.80;99.90
38500;DHT22;24269;51.894;4.622;2022-12-20T10:47:50;10.80;99.90
38500;DHT22;24269;51.894;4.622;2022-12-20T10:50:21;10.80;99.90
38500;DHT22;24269;51.894;4.622;2022-12-20T10:55:39;10.80;99.90
38500;DHT22;24269;51.894;4.622;2022-12-20T11:01:14;10.80;99.90
38500;DHT22;24269;51.894;4.622;2022-12-20T11:06:47;10.80;99.90
38500;DHT22;24269;51.894;4.622;2022-12-20T11:09:25;10.80;99.90
38500;DHT22;24269;51.894;4.622;2022-12-20T11:12:08;10.80;99.90
38500;DHT22;24269;51.894;4.622;2022-12-20T11:14:37;10.90;99.90
38500;DHT22;24269;51.894;4.622;2022-12-20T11:17:32;10.90;99.90
38500;DHT22;24269;51.894;4.622;2022-12-20T11:23:43;10.90;99.90
38500;DHT22;24269;51.894;4.622;2022-12-20T11:26:19;10.90;99.90
38500;DHT22;24269;51.894;4.622;2022-12-20T11:29:01;10.90;99.90
38500;DHT22;24269;51.894;4.622;2022-12-20T11:32:14;10.90;99.90
38500;DHT22;24269;51.894;4.622;2022-12-20T11:37:22;10.90;99.90
38500;DHT22;24269;51.894;4.622;2022-12-20T11:43:03;10.90;99.90
38500;DHT22;24269;51.894;4.622;2022-12-20T11:56:05;10.90;99.90
38500;DHT22;24269;51.894;4.622;2022-12-20T12:01:09;10.90;99.90
38500;DHT22;24269;51.894;4.622;2022-12-20T12:03:40;10.90;99.90
38500;DHT22;24269;51.894;4.622;2022-12-20T12:06:07;10.80;99.90
38500;DHT22;24269;51.894;4.622;2022-12-20T12:08:39;10.80;99.90
38500;DHT22;24269;51.894;4.622;2022-12-20T12:11:22;10.80;99.90
38500;DHT22;24269;51.894;4.622;2022-12-20T12:13:50;10.80;99.90
38500;DHT22;24269;51.894;4.622;2022-12-20T12:16:24;10.80;99.90
38500;DHT22;24269;51.894;4.622;2022-12-20T12:18:51;10.80;99.90
38500;DHT22;24269;51.894;4.622;2022-12-20T12:21:26;10.80;99.90
38500;DHT22;24269;51.894;4.622;2022-12-20T12:26:36;10.80;99.90
38500;DHT22;24269;51.894;4.622;2022-12-20T12:29:13;10.80;99.90
38500;DHT22;24269;51.894;4.622;2022-12-20T12:32:10;10.80;99.90
38500;DHT22;24269;51.894;4.622;2022-12-20T12:35:03;10.80;99.90
38500;DHT22;24269;51.894;4.622;2022-12-20T12:45:58;10.80;99.90
38500;DHT22;24269;51.894;4.622;2022-12-20T12:51:06;10.80;99.90
38500;DHT22;24269;51.894;4.622;2022-12-20T12:53:43;10.90;99.90
38500;DHT22;24269;51.894;4.622;2022-12-20T13:04:57;10.80;99.90
38500;DHT22;24269;51.894;4.622;2022-12-20T13:17:55;10.90;99.90
38500;DHT22;24269;51.894;4.622;2022-12-20T13:20:30;10.90;99.90
38500;DHT22;24269;51.894;4.622;2022-12-20T13:25:53;10.90;99.90
38500;DHT22;24269;51.894;4.622;2022-12-20T13:31:33;10.80;99.90
38500;DHT22;24269;51.894;4.622;2022-12-20T13:33:44;10.80;99.90
38500;DHT22;24269;51.894;4.622;2022-12-20T13:41:38;10.90;99.90
38500;DHT22;24269;51.894;4.622;2022-12-20T13:47:11;10.90;99.90
38500;DHT22;24269;51.894;4.622;2022-12-20T13:49:42;10.90;99.90
38500;DHT22;24269;51.894;4.622;2022-12-20T13:52:19;10.90;99.90
38500;DHT22;24269;51.894;4.622;2022-12-20T13:54:51;10.90;99.90
38500;DHT22;24269;51.894;4.622;2022-12-20T13:57:25;10.90;99.90
38500;DHT22;24269;51.894;4.622;2022-12-20T13:59:53;10.90;99.90
38500;DHT22;24269;51.894;4.622;2022-12-20T14:02:22;10.90;99.90
38500;DHT22;24269;51.894;4.622;2022-12-20T14:05:00;10.90;99.90
38500;DHT22;24269;51.894;4.622;2022-12-20T14:07:28;10.90;99.90
38500;DHT22;24269;51.894;4.622;2022-12-20T14:10:01;10.90;99.90
38500;DHT22;24269;51.894;4.622;2022-12-20T14:12:28;10.80;99.90
38500;DHT22;24269;51.894;4.622;2022-12-20T14:14:55;10.80;99.90
38500;DHT22;24269;51.894;4.622;2022-12-20T14:17:30;10.80;99.90
38500;DHT22;24269;51.894;4.622;2022-12-20T14:23:11;10.80;99.90
38500;DHT22;24269;51.894;4.622;2022-12-20T14:25:45;10.70;99.90
38500;DHT22;24269;51.894;4.622;2022-12-20T14:28:41;10.70;99.90
38500;DHT22;24269;51.894;4.622;2022-12-20T14:31:24;10.70;99.90
38500;DHT22;24269;51.894;4.622;2022-12-20T14:33:51;10.70;99.90
38500;DHT22;24269;51.894;4.622;2022-12-20T14:36:25;10.70;99.90
38500;DHT22;24269;51.894;4.622;2022-12-20T14:38:51;10.70;99.90
38500;DHT22;24269;51.894;4.622;2022-12-20T14:41:36;10.60;99.90
38500;DHT22;24269;51.894;4.622;2022-12-20T14:44:19;10.60;99.90
38500;DHT22;24269;51.894;4.622;2022-12-20T14:46:57;10.60;99.90
38500;DHT22;24269;51.894;4.622;2022-12-20T14:51:50;10.60;99.90
38500;DHT22;24269;51.894;4.622;2022-12-20T14:54:26;10.60;99.90
38500;DHT22;24269;51.894;4.622;2022-12-20T14:56:53;10.60;99.90
38500;DHT22;24269;51.894;4.622;2022-12-20T14:59:25;10.60;99.90
38500;DHT22;24269;51.894;4.622;2022-12-20T15:01:51;10.60;99.90
38500;DHT22;24269;51.894;4.622;2022-12-20T15:04:31;10.60;99.90
38500;DHT22;24269;51.894;4.622;2022-12-20T15:06:59;10.60;99.90
38500;DHT22;24269;51.894;4.622;2022-12-20T15:09:25;10.60;99.90
38500;DHT22;24269;51.894;4.622;2022-12-20T15:11:51;10.60;99.90
38500;DHT22;24269;51.894;4.622;2022-12-20T15:14:38;10.60;99.90
38500;DHT22;24269;51.894;4.622;2022-12-20T15:17:10;10.60;99.90
38500;DHT22;24269;51.894;4.622;2022-12-20T15:19:36;10.50;99.90
38500;DHT22;24269;51.894;4.622;2022-12-20T15:22:02;10.50;99.90
38500;DHT22;24269;51.894;4.622;2022-12-20T15:24:28;10.50;99.90
38500;DHT22;24269;51.894;4.622;2022-12-20T15:26:54;10.50;99.90
38500;DHT22;24269;51.894;4.622;2022-12-20T15:29:22;10.60;99.90
38500;DHT22;24269;51.894;4.622;2022-12-20T15:31:48;10.60;99.90
38500;DHT22;24269;51.894;4.622;2022-12-20T15:34:27;10.60;99.90
38500;DHT22;24269;51.894;4.622;2022-12-20T15:36:53;10.60;99.90
38500;DHT22;24269;51.894;4.622;2022-12-20T15:39:19;10.60;99.90
38500;DHT22;24269;51.894;4.622;2022-12-20T15:41:47;10.50;99.90
38500;DHT22;24269;51.894;4.622;2022-12-20T15:44:16;10.50;99.90
38500;DHT22;24269;51.894;4.622;2022-12-20T15:46:43;10.50;99.90
38500;DHT22;24269;51.894;4.622;2022-12-20T15:49:18;10.50;99.90
38500;DHT22;24269;51.894;4.622;2022-12-20T15:51:46;10.50;99.90
38500;DHT22;24269;51.894;4.622;2022-12-20T15:54:19;10.40;99.90
38500;DHT22;24269;51.894;4.622;2022-12-20T15:56:46;10.50;99.90
38500;DHT22;24269;51.894;4.622;2022-12-20T15:59:12;10.40;99.90
38500;DHT22;24269;51.894;4.622;2022-12-20T16:01:38;10.40;99.90
38500;DHT22;24269;51.894;4.622;2022-12-20T16:04:04;10.40;99.90
38500;DHT22;24269;51.894;4.622;2022-12-20T16:06:30;10.40;99.90
38500;DHT22;24269;51.894;4.622;2022-12-20T16:08:56;10.40;99.90
38500;DHT22;24269;51.894;4.622;2022-12-20T16:13:50;10.40;99.90
38500;DHT22;24269;51.894;4.622;2022-12-20T16:16:17;10.40;99.90
38500;DHT22;24269;51.894;4.622;2022-12-20T16:18:43;10.40;99.90
38500;DHT22;24269;51.894;4.622;2022-12-20T16:21:42;10.50;99.90
38500;DHT22;24269;51.894;4.622;2022-12-20T16:24:12;10.40;99.90
38500;DHT22;24269;51.894;4.622;2022-12-20T16:26:38;10.40;99.90
38500;DHT22;24269;51.894;4.622;2022-12-20T16:29:06;10.40;99.90
38500;DHT22;24269;51.894;4.622;2022-12-20T16:31:41;10.40;99.90
38500;DHT22;24269;51.894;4.622;2022-12-20T16:34:15;10.40;99.90
38500;DHT22;24269;51.894;4.622;2022-12-20T16:36:41;10.40;99.90
38500;DHT22;24269;51.894;4.622;2022-12-20T16:39:07;10.40;99.90
38500;DHT22;24269;51.894;4.622;2022-12-20T16:41:35;10.40;99.90
38500;DHT22;24269;51.894;4.622;2022-12-20T16:44:02;10.30;99.90
38500;DHT22;24269;51.894;4.622;2022-12-20T16:46:30;10.30;99.90
38500;DHT22;24269;51.894;4.622;2022-12-20T16:49:00;10.30;99.90
38500;DHT22;24269;51.894;4.622;2022-12-20T16:51:28;10.30;99.90
38500;DHT22;24269;51.894;4.622;2022-12-20T16:54:02;10.20;99.90
38500;DHT22;24269;51.894;4.622;2022-12-20T16:56:31;10.20;99.90
38500;DHT22;24269;51.894;4.622;2022-12-20T16:58:57;10.20;99.90
38500;DHT22;24269;51.894;4.622;2022-12-20T17:01:27;10.20;99.90
38500;DHT22;24269;51.894;4.622;2022-12-20T17:03:54;10.30;99.90
38500;DHT22;24269;51.894;4.622;2022-12-20T17:06:20;10.30;99.90
38500;DHT22;24269;51.894;4.622;2022-12-20T17:08:47;10.20;99.90
38500;DHT22;24269;51.894;4.622;2022-12-20T17:11:17;10.20;99.90
38500;DHT22;24269;51.894;4.622;2022-12-20T17:13:44;10.30;99.90
38500;DHT22;24269;51.894;4.622;2022-12-20T17:16:12;10.20;99.90
38500;DHT22;24269;51.894;4.622;2022-12-20T17:18:39;10.20;99.90
38500;DHT22;24269;51.894;4.622;2022-12-20T17:21:23;10.20;99.90
38500;DHT22;24269;51.894;4.622;2022-12-20T17:23:52;10.20;99.90
38500;DHT22;24269;51.894;4.622;2022-12-20T17:26:23;10.20;99.90
38500;DHT22;24269;51.894;4.622;2022-12-20T17:28:50;10.20;99.90
38500;DHT22;24269;51.894;4.622;2022-12-20T17:31:33;10.20;99.90
38500;DHT22;24269;51.894;4.622;2022-12-20T17:34:04;10.20;99.90
38500;DHT22;24269;51.894;4.622;2022-12-20T17:36:29;10.20;99.90